Time;durP1;ratioP1;P1;durP2;ratioP2;P2;SDS_P1;SDS_P2;PMS_P1;PMS_P2;Temp;Humidity;BMP_temperature;BMP_pressure;BME280_temperature;BME280_humidity;BME280_pressure;Samples;Min_cycle;Max_cycle;Signal;HPM_P1;HPM_P2
2021/11/21 00:02:04;;;;;;;7.38;5.38;;;2.00;87.70;;;;;;5071662;28;20028;-77
2021/11/21 00:04:30;;;;;;;6.20;4.03;;;2.00;87.70;;;;;;5071662;28;20115;-77
2021/11/21 00:06:55;;;;;;;8.27;4.70;;;2.00;87.60;;;;;;5072165;28;20158;-77
2021/11/21 00:09:21;;;;;;;5.97;4.15;;;2.00;87.60;;;;;;5071814;28;20025;-77
2021/11/21 00:11:47;;;;;;;25.15;13.20;;;2.00;87.50;;;;;;5071614;28;20029;-78
2021/11/21 00:14:12;;;;;;;26.95;14.75;;;1.90;86.80;;;;;;5071792;28;20484;-77
2021/11/21 00:16:38;;;;;;;30.90;16.50;;;1.80;84.90;;;;;;5071875;28;20461;-77
2021/11/21 00:19:04;;;;;;;29.80;14.15;;;1.70;84.60;;;;;;5071336;28;20028;-77
2021/11/21 00:21:31;;;;;;;22.48;13.32;;;1.50;84.70;;;;;;5054738;28;20044;-77
2021/11/21 00:23:58;;;;;;;19.95;11.27;;;1.30;85.90;;;;;;5071731;28;20028;-77
2021/11/21 00:26:24;;;;;;;19.45;10.43;;;1.10;86.70;;;;;;5071643;28;20074;-77
2021/11/21 00:28:50;;;;;;;19.92;10.57;;;1.20;87.20;;;;;;5070557;28;20094;-78
2021/11/21 00:31:17;;;;;;;19.48;11.18;;;1.30;87.70;;;;;;5071748;28;20086;-78
2021/11/21 00:33:42;;;;;;;11.35;6.93;;;1.40;87.60;;;;;;5071667;28;20086;-78
2021/11/21 00:36:08;;;;;;;7.97;5.00;;;1.40;88.30;;;;;;5071684;28;20481;-77
2021/11/21 00:38:34;;;;;;;7.82;4.50;;;1.40;89.10;;;;;;5070764;28;20070;-77
2021/11/21 00:41:01;;;;;;;8.30;4.47;;;1.50;89.30;;;;;;5071450;28;20028;-77
2021/11/21 00:43:28;;;;;;;8.88;5.28;;;1.60;88.90;;;;;;5071585;28;20028;-77
2021/11/21 00:45:54;;;;;;;7.63;5.43;;;1.70;88.40;;;;;;5071630;28;20077;-77
2021/11/21 00:48:21;;;;;;;7.45;4.60;;;1.70;87.80;;;;;;5071411;28;20416;-77
2021/11/21 00:50:51;;;;;;;7.97;4.55;;;1.80;87.40;;;;;;5071748;28;20021;-77
2021/11/21 00:53:17;;;;;;;6.85;4.18;;;1.80;87.10;;;;;;5054912;28;20048;-77
2021/11/21 00:58:15;;;;;;;7.22;4.60;;;1.80;87.00;;;;;;5073039;28;20052;-78
2021/11/21 01:00:46;;;;;;;8.55;4.75;;;1.80;86.90;;;;;;5071010;28;20048;-78
2021/11/21 01:03:14;;;;;;;7.13;5.03;;;1.90;86.80;;;;;;5055042;28;20032;-78
2021/11/21 01:05:43;;;;;;;6.75;4.38;;;1.90;86.50;;;;;;5070980;28;20396;-78
2021/11/21 01:08:10;;;;;;;7.65;4.47;;;1.90;86.40;;;;;;5072472;28;20074;-79
2021/11/21 01:10:37;;;;;;;8.10;4.68;;;1.90;86.20;;;;;;5071126;28;20052;-79
2021/11/21 01:13:03;;;;;;;6.90;4.55;;;1.90;86.30;;;;;;5074739;28;20127;-80
2021/11/21 01:15:29;;;;;;;9.50;5.10;;;1.90;86.00;;;;;;5075153;28;20023;-79
2021/11/21 01:17:56;;;;;;;12.13;6.75;;;1.90;85.90;;;;;;5074826;28;20029;-80
2021/11/21 01:20:24;;;;;;;16.00;8.20;;;1.80;86.20;;;;;;5074794;28;20075;-79
2021/11/21 01:22:52;;;;;;;13.00;7.85;;;1.80;86.30;;;;;;5075106;28;20400;-79
2021/11/21 01:25:20;;;;;;;11.20;6.75;;;1.70;86.30;;;;;;5076263;28;20504;-79
2021/11/21 01:27:46;;;;;;;8.60;6.40;;;1.70;86.20;;;;;;5074665;28;20024;-79
2021/11/21 01:30:17;;;;;;;15.38;7.57;;;1.70;86.10;;;;;;5075119;28;20028;-79
2021/11/21 01:32:45;;;;;;;17.92;6.68;;;1.70;86.20;;;;;;5074667;28;20067;-79
2021/11/21 01:35:11;;;;;;;10.65;6.47;;;1.50;85.90;;;;;;5074960;28;20481;-79
2021/11/21 01:37:38;;;;;;;12.70;7.65;;;1.50;86.30;;;;;;5074820;28;20042;-78
2021/11/21 01:40:06;;;;;;;12.52;7.03;;;1.40;85.90;;;;;;5074616;28;20493;-78
2021/11/21 01:42:31;;;;;;;11.95;6.70;;;1.40;85.40;;;;;;5074024;28;20048;-77
2021/11/21 01:44:57;;;;;;;11.50;7.35;;;1.30;85.50;;;;;;5074482;28;20028;-77
2021/11/21 01:47:22;;;;;;;12.88;7.10;;;1.30;85.70;;;;;;5074627;28;20496;-78
2021/11/21 01:49:48;;;;;;;11.30;6.85;;;1.30;85.80;;;;;;5074357;28;20113;-76
2021/11/21 01:52:14;;;;;;;10.68;6.25;;;1.30;85.90;;;;;;5057818;28;20031;-76
2021/11/21 01:54:40;;;;;;;10.82;6.45;;;1.40;85.80;;;;;;5074631;28;20070;-77
2021/11/21 01:57:07;;;;;;;9.57;6.78;;;1.40;85.60;;;;;;5074360;28;20052;-77
2021/11/21 01:59:34;;;;;;;10.45;6.47;;;1.50;85.20;;;;;;5075694;28;20032;-76
2021/11/21 02:02:00;;;;;;;10.75;6.20;;;1.50;85.00;;;;;;5074366;28;20473;-77
2021/11/21 02:04:26;;;;;;;13.70;6.68;;;1.50;84.50;;;;;;5074347;28;20086;-77
2021/11/21 02:06:51;;;;;;;11.02;6.75;;;1.50;84.60;;;;;;5074517;28;20059;-77
2021/11/21 02:09:17;;;;;;;10.77;6.28;;;1.60;84.60;;;;;;5074075;28;20078;-77
2021/11/21 02:11:44;;;;;;;8.50;5.28;;;1.60;84.50;;;;;;5074151;28;20476;-77
2021/11/21 02:14:11;;;;;;;10.80;6.15;;;1.60;84.60;;;;;;5074144;28;20116;-77
2021/11/21 02:16:36;;;;;;;10.73;6.03;;;1.60;84.50;;;;;;5074203;28;20038;-77
2021/11/21 02:19:03;;;;;;;8.60;5.50;;;1.70;84.80;;;;;;5074143;28;20028;-77
2021/11/21 02:21:29;;;;;;;9.93;5.95;;;1.70;85.00;;;;;;5072797;28;20083;-76
2021/11/21 02:23:55;;;;;;;9.40;5.78;;;1.70;85.10;;;;;;5056941;28;20052;-77
2021/11/21 02:26:22;;;;;;;7.35;4.65;;;1.60;85.10;;;;;;5074196;28;20020;-77
2021/11/21 02:28:53;;;;;;;7.07;4.88;;;1.60;85.30;;;;;;5057025;28;20075;-77
2021/11/21 02:31:19;;;;;;;9.98;4.55;;;1.60;85.20;;;;;;5074457;28;20059;-76
2021/11/21 02:33:45;;;;;;;6.57;4.32;;;1.70;85.30;;;;;;5078982;28;20068;-76
2021/11/21 02:36:12;;;;;;;7.18;5.00;;;1.70;85.10;;;;;;5081013;28;20027;-77
2021/11/21 02:38:38;;;;;;;7.93;4.63;;;1.70;85.10;;;;;;5078319;28;20035;-76
2021/11/21 02:41:08;;;;;;;9.35;6.00;;;1.70;84.90;;;;;;5075807;28;20389;-76
2021/11/21 02:43:35;;;;;;;8.20;5.45;;;1.70;85.00;;;;;;5073773;28;20477;-77
2021/11/21 02:46:00;;;;;;;9.30;4.95;;;1.70;85.20;;;;;;5056999;28;20536;-77
2021/11/21 02:48:31;;;;;;;6.97;4.57;;;1.70;85.10;;;;;;5074928;28;20031;-77
2021/11/21 02:50:58;;;;;;;8.85;4.75;;;1.60;85.00;;;;;;5073622;28;20115;-76
2021/11/21 02:53:27;;;;;;;7.18;4.85;;;1.60;85.00;;;;;;5073277;28;20033;-77
2021/11/21 02:55:56;;;;;;;10.65;5.85;;;1.60;85.20;;;;;;5073821;28;20024;-77
2021/11/21 02:58:22;;;;;;;8.57;5.32;;;1.60;85.20;;;;;;5073535;28;20027;-77
2021/11/21 03:00:49;;;;;;;8.15;5.10;;;1.60;85.10;;;;;;5074662;28;20087;-77
2021/11/21 03:03:16;;;;;;;8.57;6.15;;;1.60;85.00;;;;;;5073320;28;20021;-77
2021/11/21 03:05:42;;;;;;;9.40;6.10;;;1.60;84.90;;;;;;5073019;28;20028;-77
2021/11/21 03:08:08;;;;;;;10.60;6.10;;;1.60;85.00;;;;;;5074682;28;20028;-76
2021/11/21 03:10:34;;;;;;;11.15;6.68;;;1.60;84.90;;;;;;5072944;28;20024;-77
2021/11/21 03:13:02;;;;;;;9.10;5.57;;;1.50;84.80;;;;;;5072933;28;20037;-77
2021/11/21 03:15:29;;;;;;;7.70;4.78;;;1.50;86.00;;;;;;5073003;28;20036;-76
2021/11/21 03:17:56;;;;;;;10.65;5.85;;;1.40;84.80;;;;;;5073003;28;20024;-77
2021/11/21 03:20:27;;;;;;;10.63;6.07;;;1.40;84.90;;;;;;5072792;28;20025;-76
2021/11/21 03:22:56;;;;;;;10.15;5.68;;;1.50;84.70;;;;;;5073996;28;20138;-76
2021/11/21 03:25:21;;;;;;;9.68;5.85;;;1.50;84.30;;;;;;5072906;28;20024;-77
2021/11/21 03:27:48;;;;;;;8.25;5.28;;;1.50;83.80;;;;;;5072821;28;20115;-77
2021/11/21 03:30:17;;;;;;;8.55;5.75;;;1.50;83.60;;;;;;5056014;28;20021;-77
2021/11/21 03:32:44;;;;;;;10.68;6.53;;;1.50;84.10;;;;;;5072287;28;20040;-77
2021/11/21 03:35:10;;;;;;;13.25;6.00;;;1.50;82.90;;;;;;5054899;28;20025;-77
2021/11/21 03:37:36;;;;;;;10.88;5.57;;;1.40;81.10;;;;;;5072399;28;20465;-77
2021/11/21 03:40:06;;;;;;;11.57;5.60;;;1.40;81.40;;;;;;5072773;28;20396;-77
2021/11/21 03:42:32;;;;;;;10.65;6.45;;;1.30;81.70;;;;;;5071686;28;20123;-77
2021/11/21 03:44:58;;;;;;;9.18;5.45;;;1.30;82.10;;;;;;5072559;28;20112;-77
2021/11/21 03:47:23;;;;;;;9.82;6.25;;;1.30;82.20;;;;;;5072182;28;20017;-77
2021/11/21 03:49:49;;;;;;;8.30;5.75;;;1.30;82.40;;;;;;5072387;28;20032;-77
2021/11/21 03:52:15;;;;;;;10.00;5.45;;;1.30;82.20;;;;;;5072104;28;20021;-77
2021/11/21 03:54:40;;;;;;;9.20;5.55;;;1.30;81.90;;;;;;5071934;28;20118;-77
2021/11/21 03:57:06;;;;;;;9.95;5.47;;;1.30;81.30;;;;;;5072153;28;20021;-77
2021/11/21 03:59:32;;;;;;;7.63;5.10;;;1.20;81.40;;;;;;5072103;28;20082;-77
2021/11/21 04:01:59;;;;;;;7.88;5.18;;;1.20;81.80;;;;;;5071852;28;20460;-77
2021/11/21 04:04:28;;;;;;;8.00;5.22;;;1.20;82.10;;;;;;5072051;28;20021;-77
2021/11/21 04:06:54;;;;;;;9.20;5.38;;;1.30;82.20;;;;;;5071925;28;20025;-77
2021/11/21 04:09:20;;;;;;;9.70;6.22;;;1.30;82.00;;;;;;5055317;28;20029;-77
2021/11/21 04:11:46;;;;;;;8.57;5.55;;;1.30;81.90;;;;;;5073085;28;20058;-77
2021/11/21 04:14:12;;;;;;;9.55;5.18;;;1.30;81.70;;;;;;5055393;28;20032;-76
2021/11/21 04:16:41;;;;;;;7.35;4.75;;;1.40;81.20;;;;;;5071756;28;20071;-77
2021/11/21 04:19:09;;;;;;;11.40;5.75;;;1.30;80.80;;;;;;5072016;28;20031;-76
2021/11/21 04:21:35;;;;;;;7.45;4.70;;;1.30;80.50;;;;;;5071721;28;20047;-76
2021/11/21 04:24:01;;;;;;;7.82;5.40;;;1.20;80.40;;;;;;5071304;28;20020;-77
2021/11/21 04:26:27;;;;;;;9.35;5.72;;;1.20;81.40;;;;;;5071553;28;20078;-76
2021/11/21 04:28:53;;;;;;;10.27;5.13;;;1.10;81.90;;;;;;5071664;28;20025;-76
2021/11/21 04:31:19;;;;;;;11.07;5.72;;;1.10;82.20;;;;;;5071724;28;20443;-76
2021/11/21 04:33:44;;;;;;;7.72;5.05;;;1.00;83.00;;;;;;5071470;28;20060;-76
2021/11/21 04:36:11;;;;;;;10.20;6.03;;;0.90;84.10;;;;;;5072965;28;20025;-76
2021/11/21 04:38:36;;;;;;;11.80;6.30;;;0.80;84.40;;;;;;5071481;28;20025;-76
2021/11/21 04:41:02;;;;;;;12.40;5.90;;;0.80;84.40;;;;;;5071478;28;20389;-75
2021/11/21 04:43:28;;;;;;;11.38;5.97;;;0.90;84.80;;;;;;5071337;28;20123;-76
2021/11/21 04:45:56;;;;;;;12.20;6.85;;;0.90;84.50;;;;;;5055081;28;20024;-76
2021/11/21 04:48:24;;;;;;;11.63;6.13;;;0.90;83.90;;;;;;5078149;28;20021;-76
2021/11/21 04:50:52;;;;;;;12.00;6.65;;;0.90;82.60;;;;;;5078157;28;20111;-76
2021/11/21 04:53:18;;;;;;;14.63;7.20;;;0.90;81.80;;;;;;5077975;28;20075;-76
2021/11/21 04:55:44;;;;;;;10.80;6.25;;;0.80;81.20;;;;;;5078281;28;20024;-76
2021/11/21 04:58:09;;;;;;;13.43;6.78;;;0.80;81.40;;;;;;5078327;28;20028;-76
2021/11/21 05:00:35;;;;;;;11.70;6.93;;;0.80;81.50;;;;;;5077749;28;20020;-76
2021/11/21 05:03:01;;;;;;;10.13;6.25;;;0.80;81.50;;;;;;5078381;28;20186;-75
2021/11/21 05:05:26;;;;;;;14.18;6.97;;;0.80;81.70;;;;;;5061327;28;20029;-75
2021/11/21 05:07:52;;;;;;;11.90;7.65;;;0.90;81.60;;;;;;5077847;28;20032;-75
2021/11/21 05:10:21;;;;;;;11.23;6.68;;;0.80;81.00;;;;;;5077788;28;20423;-75
2021/11/21 05:12:47;;;;;;;11.77;6.65;;;0.70;81.30;;;;;;5077697;28;20036;-76
2021/11/21 05:15:22;;;;;;;10.43;5.45;;;0.60;82.10;;;;;;5077936;28;20078;-76
2021/11/21 05:17:49;;;;;;;10.52;6.57;;;0.60;82.60;;;;;;5078001;28;20028;-75
2021/11/21 05:20:16;;;;;;;10.55;5.25;;;0.50;82.80;;;;;;5077274;28;20052;-75
2021/11/21 05:22:42;;;;;;;10.60;5.35;;;0.50;82.90;;;;;;5079076;28;20040;-75
2021/11/21 05:25:08;;;;;;;12.75;5.90;;;0.60;83.30;;;;;;5078055;28;20059;-75
2021/11/21 05:27:34;;;;;;;9.57;5.50;;;0.70;83.40;;;;;;5077576;28;20059;-76
2021/11/21 05:29:59;;;;;;;9.57;5.22;;;0.70;83.40;;;;;;5077581;28;20024;-75
2021/11/21 05:32:25;;;;;;;10.23;4.97;;;0.70;83.50;;;;;;5078993;28;20024;-75
2021/11/21 05:34:51;;;;;;;7.85;5.13;;;0.70;83.80;;;;;;5077717;28;20124;-76
2021/11/21 05:37:18;;;;;;;8.63;5.30;;;0.80;83.90;;;;;;5077898;28;20023;-76
2021/11/21 05:39:44;;;;;;;6.95;4.68;;;0.70;84.10;;;;;;5077404;28;20032;-77
2021/11/21 05:42:10;;;;;;;8.10;5.20;;;0.70;84.30;;;;;;5078953;28;20508;-78
2021/11/21 05:44:35;;;;;;;10.50;5.32;;;0.70;84.70;;;;;;5077554;28;20031;-78
2021/11/21 05:47:02;;;;;;;9.05;5.18;;;0.70;84.90;;;;;;5078896;28;20032;-79
2021/11/21 05:49:28;;;;;;;10.90;5.35;;;0.70;85.30;;;;;;5076947;28;20545;-78
2021/11/21 05:51:53;;;;;;;10.13;5.07;;;0.60;85.40;;;;;;5077429;28;20072;-77
2021/11/21 05:54:19;;;;;;;9.43;5.30;;;0.50;86.00;;;;;;5077304;28;20497;-78
2021/11/21 05:56:44;;;;;;;9.52;5.80;;;0.50;86.70;;;;;;5060817;28;20046;-78
2021/11/21 05:59:10;;;;;;;11.05;5.72;;;0.50;86.60;;;;;;5073749;28;20028;-78
2021/11/21 06:01:36;;;;;;;10.38;5.82;;;0.50;86.60;;;;;;5074147;28;20450;-78
2021/11/21 06:04:01;;;;;;;10.32;5.65;;;0.50;85.80;;;;;;5074327;28;20021;-78
2021/11/21 06:06:27;;;;;;;10.95;6.65;;;0.50;85.50;;;;;;5074413;28;20032;-78
2021/11/21 06:08:52;;;;;;;12.32;7.25;;;0.50;85.40;;;;;;5074499;28;20031;-78
2021/11/21 06:11:18;;;;;;;13.48;7.47;;;0.50;86.10;;;;;;5075334;28;20040;-77
2021/11/21 06:13:45;;;;;;;12.02;6.88;;;0.50;85.10;;;;;;5074025;28;20040;-78
2021/11/21 06:16:11;;;;;;;12.52;6.68;;;0.60;85.30;;;;;;5074374;28;20070;-77
2021/11/21 06:18:37;;;;;;;11.73;6.68;;;0.60;84.70;;;;;;5073875;28;20124;-76
2021/11/21 06:21:03;;;;;;;10.25;6.10;;;0.60;84.80;;;;;;5073701;28;20041;-76
2021/11/21 06:23:35;;;;;;;11.80;6.15;;;0.60;84.70;;;;;;5073781;28;20477;-76
2021/11/21 06:26:05;;;;;;;12.88;7.28;;;0.70;84.90;;;;;;5074150;28;20028;-77
2021/11/21 06:28:31;;;;;;;9.60;6.28;;;0.60;84.20;;;;;;5073912;28;20025;-78
2021/11/21 06:30:56;;;;;;;8.93;5.22;;;0.60;84.80;;;;;;5073333;28;20055;-78
2021/11/21 06:33:22;;;;;;;10.82;6.15;;;0.60;85.60;;;;;;5073528;28;20374;-78
2021/11/21 06:35:49;;;;;;;8.75;5.97;;;0.60;85.70;;;;;;5075130;28;20028;-77
2021/11/21 06:38:17;;;;;;;8.98;5.63;;;0.70;85.40;;;;;;5073819;28;20118;-78
2021/11/21 06:40:43;;;;;;;14.18;7.80;;;0.70;85.30;;;;;;5073641;28;20075;-75
2021/11/21 06:43:08;;;;;;;11.82;7.35;;;0.60;82.70;;;;;;5073445;28;20492;-75
2021/11/21 06:45:34;;;;;;;14.10;8.13;;;0.60;82.00;;;;;;5073345;28;20020;-76
2021/11/21 06:47:59;;;;;;;16.35;9.00;;;0.50;81.80;;;;;;5073293;28;20064;-77
2021/11/21 06:50:26;;;;;;;15.40;9.07;;;0.50;81.70;;;;;;5073085;28;20654;-76
2021/11/21 06:52:53;;;;;;;17.92;9.80;;;0.40;81.50;;;;;;5074760;28;20060;-79
2021/11/21 06:55:19;;;;;;;17.35;8.90;;;0.40;81.40;;;;;;5073306;28;20017;-77
2021/11/21 06:57:45;;;;;;;19.60;9.38;;;0.40;81.60;;;;;;5073327;28;20078;-77
2021/11/21 07:00:15;;;;;;;13.73;7.75;;;0.40;81.70;;;;;;5072960;28;20024;-76
2021/11/21 07:02:41;;;;;;;13.38;7.25;;;0.50;81.80;;;;;;5071285;28;20025;-77
2021/11/21 07:05:07;;;;;;;11.57;6.57;;;0.50;81.40;;;;;;5073122;28;20027;-77
2021/11/21 07:07:33;;;;;;;12.30;7.03;;;0.50;80.90;;;;;;5072300;28;20021;-76
2021/11/21 07:09:59;;;;;;;15.65;7.82;;;0.50;80.90;;;;;;5070745;28;20066;-77
2021/11/21 07:12:24;;;;;;;12.98;7.55;;;0.60;80.90;;;;;;5071379;28;20081;-76
2021/11/21 07:14:51;;;;;;;16.00;7.05;;;0.70;80.60;;;;;;5071051;28;20114;-77
2021/11/21 07:17:17;;;;;;;12.48;7.35;;;0.70;80.30;;;;;;5071309;28;20017;-76
2021/11/21 07:19:43;;;;;;;14.50;7.38;;;0.70;80.10;;;;;;5071921;28;20158;-76
2021/11/21 07:22:08;;;;;;;14.35;8.60;;;0.80;80.00;;;;;;5071415;28;20044;-76
2021/11/21 07:24:34;;;;;;;15.45;8.32;;;0.80;79.90;;;;;;5069617;28;20035;-76
2021/11/21 07:27:00;;;;;;;17.08;8.82;;;0.90;80.10;;;;;;5070972;28;20025;-77
2021/11/21 07:29:31;;;;;;;13.05;7.55;;;0.90;80.00;;;;;;5071771;28;20498;-77
2021/11/21 07:32:00;;;;;;;12.63;7.60;;;1.00;80.00;;;;;;5071137;28;20031;-76
2021/11/21 07:34:26;;;;;;;13.77;9.48;;;1.10;80.10;;;;;;5072209;28;20099;-77
2021/11/21 07:36:53;;;;;;;15.50;10.70;;;1.10;79.90;;;;;;5072531;28;20028;-77
2021/11/21 07:39:19;;;;;;;13.95;9.13;;;1.20;79.80;;;;;;5073593;28;20056;-77
2021/11/21 07:41:45;;;;;;;15.65;10.40;;;1.30;79.70;;;;;;5072242;28;20056;-77
2021/11/21 07:44:11;;;;;;;14.25;9.23;;;1.40;79.70;;;;;;5072484;28;20059;-77
2021/11/21 07:46:38;;;;;;;12.30;7.85;;;1.50;79.80;;;;;;5073549;28;20074;-77
2021/11/21 07:49:04;;;;;;;15.65;8.80;;;1.60;79.80;;;;;;5072289;28;20024;-77
2021/11/21 07:51:30;;;;;;;24.58;14.00;;;1.70;79.60;;;;;;5072295;28;20032;-77
2021/11/21 07:53:56;;;;;;;25.23;14.75;;;1.70;78.60;;;;;;5071846;28;20033;-76
2021/11/21 07:56:22;;;;;;;22.60;12.40;;;1.80;78.60;;;;;;5072210;28;20035;-77
2021/11/21 07:58:48;;;;;;;26.63;11.02;;;1.70;78.50;;;;;;5071644;28;20032;-77
2021/11/21 08:01:14;;;;;;;20.17;10.68;;;1.60;79.10;;;;;;5071616;28;20506;-77
2021/11/21 08:03:40;;;;;;;19.52;11.55;;;1.70;80.40;;;;;;5071764;28;20025;-77
2021/11/21 08:06:05;;;;;;;18.88;10.18;;;1.70;80.30;;;;;;5072057;28;20017;-76
2021/11/21 08:08:31;;;;;;;18.70;11.07;;;1.80;80.10;;;;;;5071548;28;20032;-77
2021/11/21 08:10:57;;;;;;;22.83;12.63;;;2.00;79.90;;;;;;5071785;28;20093;-77
2021/11/21 08:13:26;;;;;;;25.88;14.65;;;2.30;79.40;;;;;;5071869;28;20032;-76
2021/11/21 08:15:52;;;;;;;21.63;13.40;;;2.20;78.50;;;;;;5071638;28;20085;-76
2021/11/21 08:18:17;;;;;;;21.50;13.07;;;2.10;78.30;;;;;;5071762;28;20028;-76
2021/11/21 08:20:43;;;;;;;21.17;13.02;;;2.20;78.40;;;;;;5071302;28;20036;-76
2021/11/21 08:23:09;;;;;;;21.75;12.05;;;2.10;78.60;;;;;;5070933;28;20035;-76
2021/11/21 08:25:34;;;;;;;21.00;11.32;;;2.20;79.00;;;;;;5071463;28;20047;-76
2021/11/21 08:28:00;;;;;;;19.80;11.73;;;2.20;78.90;;;;;;5071317;28;20024;-76
2021/11/21 08:30:29;;;;;;;18.08;11.75;;;2.20;79.30;;;;;;5072714;28;20032;-76
2021/11/21 08:32:56;;;;;;;20.60;11.52;;;2.00;80.30;;;;;;5071432;28;20128;-77
2021/11/21 08:35:22;;;;;;;19.08;11.23;;;2.00;81.50;;;;;;5075621;28;20497;-77
2021/11/21 08:37:48;;;;;;;17.02;9.60;;;2.10;81.80;;;;;;5071714;28;20051;-77
2021/11/21 08:40:13;;;;;;;18.30;10.52;;;2.20;81.90;;;;;;5071623;28;20048;-77
2021/11/21 08:42:39;;;;;;;15.75;9.55;;;2.30;81.50;;;;;;5071346;28;20115;-78
2021/11/21 08:45:07;;;;;;;15.80;9.00;;;2.60;81.10;;;;;;5071369;28;20074;-77
2021/11/21 08:47:34;;;;;;;15.23;8.73;;;2.90;80.60;;;;;;5071470;28;20104;-77
2021/11/21 08:50:00;;;;;;;12.98;8.18;;;3.20;79.20;;;;;;5071613;28;20021;-78
2021/11/21 08:52:27;;;;;;;10.93;7.78;;;3.50;78.10;;;;;;5071523;28;20086;-78
2021/11/21 08:54:53;;;;;;;12.07;7.93;;;3.80;76.60;;;;;;5071426;28;20056;-78
2021/11/21 08:57:18;;;;;;;9.90;6.47;;;4.10;75.00;;;;;;5071081;28;20477;-79
2021/11/21 08:59:44;;;;;;;10.23;6.55;;;4.40;74.40;;;;;;5071688;28;20047;-79
2021/11/21 09:02:10;;;;;;;11.32;6.57;;;4.80;73.50;;;;;;5071061;28;20064;-78
2021/11/21 09:04:36;;;;;;;13.52;7.30;;;5.10;72.60;;;;;;5054337;28;20035;-79
2021/11/21 09:07:01;;;;;;;10.70;6.90;;;5.40;71.20;;;;;;5054447;28;20028;-78
2021/11/21 09:09:27;;;;;;;11.80;7.07;;;5.60;69.10;;;;;;5054328;28;20051;-78
2021/11/21 09:11:53;;;;;;;13.60;7.78;;;5.80;68.30;;;;;;5054177;28;20025;-77
2021/11/21 09:14:21;;;;;;;19.45;6.90;;;5.90;67.50;;;;;;5072416;28;20543;-78
2021/11/21 09:16:46;;;;;;;13.65;7.28;;;6.50;84.90;;;;;;5054575;28;20107;-79
2021/11/21 09:19:41;;;;;;;10.82;7.00;;;6.70;81.90;;;;;;5072354;28;20032;-83
2021/11/21 09:22:09;;;;;;;8.32;5.85;;;7.00;78.90;;;;;;5071096;28;20047;-79
2021/11/21 09:25:00;;;;;;;9.05;6.35;;;7.30;70.70;;;;;;5071162;28;20162;-80
2021/11/21 09:27:28;;;;;;;12.05;6.55;;;7.50;69.20;;;;;;5073156;28;20040;-79
2021/11/21 09:30:15;;;;;;;11.10;6.82;;;7.60;66.50;;;;;;5086657;28;20064;-82
2021/11/21 09:33:00;;;;;;;10.30;7.50;;;7.90;65.80;;;;;;5072255;28;20108;-79
2021/11/21 09:35:26;;;;;;;12.93;8.05;;;8.30;63.80;;;;;;5074356;28;20064;-79
2021/11/21 09:37:53;;;;;;;14.85;6.82;;;8.40;62.40;;;;;;5075609;28;20111;-78
2021/11/21 09:40:39;;;;;;;9.32;6.65;;;8.50;61.80;;;;;;5074714;28;20056;-79
2021/11/21 09:43:08;;;;;;;10.68;6.80;;;8.80;61.10;;;;;;5075113;28;20039;-80
2021/11/21 09:45:58;;;;;;;10.38;7.07;;;9.10;60.00;;;;;;5078442;28;20025;-78
2021/11/21 09:48:32;;;;;;;9.88;6.82;;;9.40;58.20;;;;;;5087767;28;20021;-81
2021/11/21 09:51:01;;;;;;;13.23;8.93;;;9.70;56.30;;;;;;5083410;28;20021;-81
2021/11/21 09:53:26;;;;;;;8.98;6.78;;;9.60;55.10;;;;;;5062537;28;20497;-81
2021/11/21 09:55:52;;;;;;;9.63;7.10;;;9.40;54.50;;;;;;5075566;28;20116;-81
2021/11/21 09:58:18;;;;;;;11.95;8.25;;;9.30;55.00;;;;;;5074007;28;20081;-80
2021/11/21 10:00:44;;;;;;;12.07;7.65;;;9.30;55.50;;;;;;5074666;28;20025;-80
2021/11/21 10:03:14;;;;;;;9.65;6.18;;;9.20;55.70;;;;;;5058902;28;20396;-79
2021/11/21 10:05:46;;;;;;;9.57;6.53;;;9.10;55.70;;;;;;5074740;28;20031;-80
2021/11/21 10:08:13;;;;;;;8.25;5.65;;;9.30;55.70;;;;;;5074462;28;20115;-81
2021/11/21 10:10:52;;;;;;;8.80;6.07;;;9.40;55.40;;;;;;5074034;28;20036;-80
2021/11/21 10:13:28;;;;;;;8.07;6.03;;;9.00;55.80;;;;;;5074169;28;20045;-78
2021/11/21 10:15:55;;;;;;;12.57;7.20;;;9.30;56.00;;;;;;5075298;28;20028;-81
2021/11/21 10:18:21;;;;;;;9.18;6.65;;;9.20;55.40;;;;;;5073880;28;20035;-80
2021/11/21 10:20:47;;;;;;;9.45;6.50;;;9.20;56.30;;;;;;5073795;28;20045;-80
2021/11/21 10:23:13;;;;;;;9.25;6.88;;;9.20;55.60;;;;;;5073960;28;20039;-80
2021/11/21 10:25:45;;;;;;;9.65;6.43;;;9.40;55.40;;;;;;5073505;28;20127;-80
2021/11/21 10:28:38;;;;;;;8.48;5.95;;;9.50;54.80;;;;;;5073510;28;20028;-80
2021/11/21 10:31:19;;;;;;;10.15;6.32;;;9.60;54.10;;;;;;5072212;28;20028;-80
2021/11/21 10:33:49;;;;;;;9.32;6.35;;;9.90;53.90;;;;;;5073567;28;20127;-80
2021/11/21 10:36:17;;;;;;;11.00;6.45;;;10.30;52.70;;;;;;5073619;28;20419;-80
2021/11/21 10:38:47;;;;;;;8.70;5.78;;;10.50;51.90;;;;;;5073620;28;20453;-80
2021/11/21 10:41:31;;;;;;;8.25;6.32;;;10.90;51.50;;;;;;5073672;28;20108;-79
2021/11/21 10:44:01;;;;;;;8.23;5.93;;;11.00;49.90;;;;;;5073662;28;20032;-81
2021/11/21 10:46:44;;;;;;;9.90;6.65;;;11.10;50.10;;;;;;5073501;28;20025;-81
2021/11/21 10:49:25;;;;;;;7.93;6.30;;;11.00;50.40;;;;;;5073647;28;20362;-81
2021/11/21 10:52:11;;;;;;;11.18;5.40;;;11.10;50.40;;;;;;5073576;28;20024;-82
2021/11/21 10:54:48;;;;;;;6.88;5.47;;;11.20;50.40;;;;;;5073235;28;20472;-82
2021/11/21 10:57:23;;;;;;;6.28;4.80;;;11.40;50.30;;;;;;5074666;28;20028;-82
2021/11/21 10:59:55;;;;;;;6.63;5.45;;;11.60;49.20;;;;;;5073387;28;20081;-81
2021/11/21 11:02:30;;;;;;;6.90;5.28;;;11.60;48.60;;;;;;5073251;28;20034;-81
2021/11/21 11:05:14;;;;;;;8.13;5.22;;;11.60;48.40;;;;;;5074429;28;20024;-82
2021/11/21 11:08:02;;;;;;;6.90;5.47;;;10.70;51.50;;;;;;5074266;28;20103;-82
2021/11/21 11:10:34;;;;;;;7.53;5.70;;;10.70;51.20;;;;;;5073202;28;20020;-82
2021/11/21 11:13:05;;;;;;;8.48;6.05;;;10.70;52.20;;;;;;5072778;28;20055;-82
2021/11/21 11:15:34;;;;;;;7.90;5.80;;;11.20;51.90;;;;;;5073120;28;20016;-82
2021/11/21 11:17:59;;;;;;;9.52;6.70;;;11.60;51.30;;;;;;5072917;28;20120;-82
2021/11/21 11:20:27;;;;;;;8.13;6.32;;;12.10;49.90;;;;;;5072477;28;20508;-82
2021/11/21 11:22:55;;;;;;;10.27;7.43;;;11.80;50.10;;;;;;5072299;28;20405;-80
2021/11/21 11:25:30;;;;;;;8.55;6.47;;;12.00;49.80;;;;;;5072852;28;20130;-81
2021/11/21 11:28:13;;;;;;;9.07;7.15;;;12.40;48.90;;;;;;5072804;28;20131;-82
2021/11/21 11:30:40;;;;;;;9.55;7.63;;;12.90;47.40;;;;;;5072553;28;20039;-81
2021/11/21 11:33:12;;;;;;;7.00;5.68;;;13.30;45.60;;;;;;5072121;28;20086;-81
2021/11/21 11:35:42;;;;;;;7.72;6.13;;;13.60;44.50;;;;;;5072472;28;20020;-81
2021/11/21 11:38:22;;;;;;;8.60;5.85;;;13.80;43.30;;;;;;5072160;28;20021;-81
2021/11/21 11:40:53;;;;;;;8.45;6.03;;;14.30;42.10;;;;;;5072407;28;20036;-82
2021/11/21 11:43:28;;;;;;;8.90;6.40;;;14.80;40.60;;;;;;5072030;28;20436;-82
2021/11/21 11:46:03;;;;;;;7.33;6.33;;;14.70;39.90;;;;;;5072342;28;20106;-80
2021/11/21 11:48:33;;;;;;;8.40;6.45;;;14.90;39.30;;;;;;5072478;28;20032;-80
2021/11/21 11:51:04;;;;;;;7.72;6.28;;;14.70;39.60;;;;;;5072291;28;20017;-81
2021/11/21 11:53:45;;;;;;;5.80;5.13;;;15.30;38.80;;;;;;5072339;28;20063;-81
2021/11/21 11:56:24;;;;;;;7.15;5.32;;;15.80;38.40;;;;;;5073307;28;20103;-81
2021/11/21 11:59:03;;;;;;;7.93;5.47;;;16.40;36.70;;;;;;5088681;28;20035;-80
2021/11/21 12:01:38;;;;;;;6.85;5.57;;;17.10;35.70;;;;;;5086723;28;20515;-81
2021/11/21 12:04:19;;;;;;;6.80;4.43;;;17.10;34.50;;;;;;5078191;28;20035;-81
2021/11/21 12:06:53;;;;;;;6.90;5.35;;;17.30;34.90;;;;;;5074941;28;20040;-80
2021/11/21 12:09:22;;;;;;;6.45;5.13;;;17.80;33.90;;;;;;5073158;28;20024;-81
2021/11/21 12:12:08;;;;;;;6.72;5.40;;;18.10;33.30;;;;;;5072002;28;20186;-82
2021/11/21 12:14:38;;;;;;;;;;;18.50;32.40;;;;;;5072756;28;20060;-80
2021/11/21 12:17:16;;;;;;;6.15;5.10;;;18.40;32.80;;;;;;5072221;28;19957;-80
2021/11/21 12:19:46;;;;;;;5.63;4.50;;;19.30;31.30;;;;;;5071932;28;20025;-81
2021/11/21 12:22:37;;;;;;;5.78;4.63;;;19.50;30.10;;;;;;5071947;28;20047;-81
2021/11/21 12:25:21;;;;;;;8.50;4.93;;;19.70;30.50;;;;;;5071100;28;20036;-81
2021/11/21 12:28:00;;;;;;;5.70;5.07;;;20.80;28.90;;;;;;5071375;28;20036;-81
2021/11/21 12:30:39;;;;;;;5.13;4.63;;;21.90;26.30;;;;;;5073128;28;20116;-82
2021/11/21 12:33:23;;;;;;;4.18;3.78;;;22.70;24.80;;;;;;5055394;28;20047;-80
2021/11/21 12:35:53;;;;;;;4.65;4.15;;;23.20;23.60;;;;;;5071323;28;20388;-80
2021/11/21 12:38:35;;;;;;;5.03;4.40;;;24.60;21.80;;;;;;5071442;28;20035;-79
2021/11/21 12:41:07;;;;;;;5.93;4.13;;;25.80;19.20;;;;;;5071562;28;20450;-82
2021/11/21 12:43:34;;;;;;;4.97;4.50;;;24.60;19.40;;;;;;5071649;28;20048;-81
2021/11/21 12:46:01;;;;;;;5.05;4.40;;;24.80;19.30;;;;;;5070977;28;20540;-80
2021/11/21 12:48:29;;;;;;;4.63;4.03;;;25.40;18.70;;;;;;5071540;28;20028;-81
2021/11/21 12:51:03;;;;;;;4.45;4.05;;;25.40;18.30;;;;;;5071496;28;20384;-80
2021/11/21 12:53:32;;;;;;;4.50;4.10;;;23.80;19.10;;;;;;5055238;28;20106;-80
2021/11/21 12:56:08;;;;;;;5.22;4.72;;;21.70;21.30;;;;;;5071505;28;20024;-81
2021/11/21 12:58:41;;;;;;;7.28;5.18;;;19.60;25.30;;;;;;5071362;28;20070;-81